Time;durP1;ratioP1;P1;durP2;ratioP2;P2;SDS_P1;SDS_P2;PMS_P1;PMS_P2;Temp;Humidity;BMP_temperature;BMP_pressure;BME280_temperature;BME280_humidity;BME280_pressure;Samples;Min_cycle;Max_cycle;Signal;HPM_P1;HPM_P2
2023/07/25 00:00:10;;;;;;;3.08;1.90;;;19.60;99.90;;;;;;1931828;72;22233;-81
2023/07/25 00:03:01;;;;;;;3.12;1.65;;;19.60;99.90;;;;;;1881751;75;21063;-80
2023/07/25 00:08:33;;;;;;;3.20;1.70;;;19.60;99.90;;;;;;1930364;72;22232;-80
2023/07/25 00:14:04;;;;;;;3.12;1.42;;;19.60;99.90;;;;;;1938137;72;22177;-80
2023/07/25 00:19:35;;;;;;;1.87;1.40;;;19.60;99.90;;;;;;1943484;72;22220;-81
2023/07/25 00:22:26;;;;;;;2.52;1.55;;;19.60;99.90;;;;;;1868628;75;21113;-81
2023/07/25 00:27:59;;;;;;;1.67;1.40;;;19.80;99.90;;;;;;1928173;72;22849;-82
2023/07/25 00:30:50;;;;;;;5.42;1.50;;;19.80;99.90;;;;;;1906585;75;21109;-82
2023/07/25 00:36:27;;;;;;;3.42;1.50;;;19.80;99.90;;;;;;1942750;72;20139;-82
2023/07/25 00:39:18;;;;;;;2.27;1.50;;;19.80;99.90;;;;;;1919496;73;21179;-82
2023/07/25 00:42:10;;;;;;;4.75;1.40;;;19.80;99.90;;;;;;1917124;73;21147;-82
2023/07/25 00:45:01;;;;;;;1.92;1.50;;;19.70;99.90;;;;;;1917311;73;21184;-82
2023/07/25 00:47:53;;;;;;;5.12;1.30;;;19.70;99.90;;;;;;1931813;73;21094;-82
2023/07/25 00:50:44;;;;;;;4.20;1.90;;;19.70;99.90;;;;;;1919869;73;21118;-82
2023/07/25 00:56:19;;;;;;;2.52;1.52;;;19.80;99.90;;;;;;1942032;72;22669;-83
2023/07/25 01:01:49;;;;;;;1.65;1.02;;;19.60;99.90;;;;;;1934203;72;22393;-82
2023/07/25 01:04:41;;;;;;;1.87;0.90;;;19.50;99.90;;;;;;1887190;75;21102;-82
2023/07/25 01:07:33;;;;;;;3.02;0.98;;;19.30;99.90;;;;;;1884523;75;21487;-82
2023/07/25 01:10:25;;;;;;;1.95;1.07;;;19.40;99.90;;;;;;1886974;75;21176;-82
2023/07/25 01:13:16;;;;;;;2.45;1.30;;;19.50;99.90;;;;;;1894307;75;21047;-83
2023/07/25 01:18:48;;;;;;;3.25;1.30;;;19.60;99.90;;;;;;1930480;72;22668;-82
2023/07/25 01:21:39;;;;;;;4.67;1.22;;;19.60;99.90;;;;;;1893123;75;21144;-82
2023/07/25 01:24:31;;;;;;;3.87;1.40;;;19.60;99.90;;;;;;1908217;74;21066;-82
2023/07/25 01:30:00;;;;;;;1.92;1.30;;;19.60;99.90;;;;;;1929044;72;22138;-82
2023/07/25 01:32:52;;;;;;;2.25;1.15;;;19.60;99.90;;;;;;1877346;75;21095;-82
2023/07/25 01:35:43;;;;;;;1.90;1.25;;;19.60;99.90;;;;;;1894328;75;21201;-82
2023/07/25 01:38:34;;;;;;;2.75;1.20;;;19.50;99.90;;;;;;1889698;75;21550;-82
2023/07/25 01:44:05;;;;;;;3.00;1.60;;;19.50;99.90;;;;;;1932688;72;22264;-82
2023/07/25 01:46:57;;;;;;;5.47;1.80;;;19.50;99.90;;;;;;1866754;75;21537;-83
2023/07/25 01:49:49;;;;;;;2.75;1.70;;;19.60;99.90;;;;;;1873233;75;21371;-82
2023/07/25 01:52:40;;;;;;;3.02;1.47;;;19.60;99.90;;;;;;1874889;75;21172;-82
2023/07/25 01:55:31;;;;;;;2.25;1.50;;;19.60;99.90;;;;;;1873294;75;21048;-82
2023/07/25 01:58:24;;;;;;;2.70;1.62;;;19.60;99.90;;;;;;1895756;75;21108;-82
2023/07/25 02:03:55;;;;;;;3.17;1.35;;;19.70;99.90;;;;;;1940887;72;22261;-82
2023/07/25 02:09:30;;;;;;;1.82;1.45;;;19.60;99.90;;;;;;1936344;72;22217;-82
2023/07/25 02:15:01;;;;;;;3.47;1.62;;;19.60;99.90;;;;;;1907577;72;22208;-83
2023/07/25 02:20:34;;;;;;;6.97;1.80;;;19.50;99.90;;;;;;1945854;72;22241;-83
2023/07/25 02:23:26;;;;;;;2.33;1.70;;;19.40;99.90;;;;;;1911576;74;21107;-83
2023/07/25 02:26:17;;;;;;;1.77;1.37;;;19.20;99.90;;;;;;1888751;74;21188;-84
2023/07/25 02:29:10;;;;;;;3.75;1.35;;;19.20;99.90;;;;;;1885149;75;21125;-84
2023/07/25 02:34:40;;;;;;;2.10;1.25;;;19.10;99.90;;;;;;1940885;72;22252;-73
2023/07/25 02:37:31;;;;;;;4.53;1.35;;;18.90;99.90;;;;;;1913301;74;21203;-73
2023/07/25 02:40:22;;;;;;;3.45;1.45;;;18.90;99.90;;;;;;1885591;76;21164;-73
2023/07/25 02:43:14;;;;;;;2.72;1.20;;;18.90;99.90;;;;;;1914370;74;21485;-73
2023/07/25 02:48:43;;;;;;;2.80;1.50;;;18.90;99.90;;;;;;1953481;72;22182;-74
2023/07/25 02:54:12;;;;;;;3.80;1.60;;;18.80;99.90;;;;;;1924662;72;22314;-73
2023/07/25 02:57:03;;;;;;;4.12;1.67;;;18.70;99.90;;;;;;1907582;75;21145;-73
2023/07/25 02:59:54;;;;;;;1.67;1.37;;;18.70;99.90;;;;;;1907960;74;21134;-73
2023/07/25 03:02:46;;;;;;;3.27;1.40;;;18.70;99.90;;;;;;1911136;74;21613;-73
2023/07/25 03:05:37;;;;;;;2.47;1.50;;;18.70;99.90;;;;;;1911817;75;21170;-74
2023/07/25 03:08:28;;;;;;;2.17;1.17;;;18.70;99.90;;;;;;1892094;74;21215;-74
2023/07/25 03:13:58;;;;;;;3.62;1.60;;;18.80;99.90;;;;;;1932943;72;22326;-74
2023/07/25 03:16:49;;;;;;;4.00;1.42;;;18.80;99.90;;;;;;1895166;74;21105;-74
2023/07/25 03:19:40;;;;;;;7.62;1.60;;;18.80;99.90;;;;;;1897180;75;21098;-74
2023/07/25 03:22:31;;;;;;;2.55;1.37;;;18.80;99.90;;;;;;1893084;75;21106;-74
2023/07/25 03:25:22;;;;;;;2.02;1.35;;;18.80;99.90;;;;;;1895016;74;21028;-74
2023/07/25 03:28:13;;;;;;;2.12;1.65;;;18.80;99.90;;;;;;1888067;75;21122;-73
2023/07/25 03:33:43;;;;;;;3.08;1.52;;;18.80;99.90;;;;;;1947701;72;22333;-74
2023/07/25 03:39:14;;;;;;;4.33;1.67;;;18.70;99.90;;;;;;1929890;72;22213;-74
2023/07/25 03:44:45;;;;;;;3.77;1.50;;;18.50;99.90;;;;;;1936390;72;22424;-73
2023/07/25 03:47:36;;;;;;;3.58;1.87;;;18.50;99.90;;;;;;1910920;75;21206;-74
2023/07/25 03:50:27;;;;;;;2.72;1.82;;;18.50;99.90;;;;;;1889945;75;21050;-74
2023/07/25 03:53:18;;;;;;;2.75;1.77;;;18.50;99.90;;;;;;1895743;75;21207;-74
2023/07/25 03:56:10;;;;;;;4.62;1.50;;;18.40;99.90;;;;;;1893241;75;21121;-76
2023/07/25 03:59:01;;;;;;;2.98;1.70;;;18.30;99.90;;;;;;1891428;75;21118;-74
2023/07/25 04:01:52;;;;;;;2.52;1.60;;;18.20;99.90;;;;;;1904110;75;21075;-74
2023/07/25 04:04:43;;;;;;;3.87;1.57;;;18.20;99.90;;;;;;1886860;75;21658;-74
2023/07/25 04:07:36;;;;;;;2.42;1.42;;;18.20;99.90;;;;;;1891280;74;21118;-74
2023/07/25 04:10:28;;;;;;;2.42;1.40;;;18.20;99.90;;;;;;1906009;75;21146;-75
2023/07/25 04:13:19;;;;;;;3.95;1.90;;;18.10;99.90;;;;;;1910906;75;22536;-74
2023/07/25 04:18:50;;;;;;;6.10;2.10;;;18.10;99.90;;;;;;1939647;72;22273;-74
2023/07/25 04:21:41;;;;;;;3.08;1.72;;;18.30;99.90;;;;;;1906081;75;21133;-73
2023/07/25 04:24:32;;;;;;;2.67;1.90;;;18.30;99.90;;;;;;1900150;75;21113;-74
2023/07/25 04:30:03;;;;;;;1.67;1.27;;;18.20;99.90;;;;;;1939721;72;23385;-73
2023/07/25 04:32:54;;;;;;;3.02;1.67;;;18.30;99.90;;;;;;1901193;75;21811;-73
2023/07/25 04:35:46;;;;;;;1.75;1.40;;;18.40;99.90;;;;;;1887312;75;21106;-74
2023/07/25 04:38:37;;;;;;;5.45;1.80;;;18.40;99.90;;;;;;1892128;75;21139;-73
2023/07/25 04:44:07;;;;;;;2.85;1.50;;;18.60;99.90;;;;;;1948384;72;22245;-74
2023/07/25 04:49:37;;;;;;;4.20;1.67;;;18.50;99.90;;;;;;1938729;72;22279;-75
2023/07/25 04:52:28;;;;;;;2.65;1.57;;;18.50;99.90;;;;;;1911780;75;21183;-75
2023/07/25 04:55:20;;;;;;;2.30;1.60;;;18.60;99.90;;;;;;1909307;74;21113;-74
2023/07/25 04:58:11;;;;;;;2.77;1.50;;;18.70;99.90;;;;;;1906689;75;21101;-74
2023/07/25 05:03:41;;;;;;;2.85;1.55;;;18.60;99.90;;;;;;1941991;72;22574;-78
2023/07/25 05:06:33;;;;;;;4.00;1.57;;;18.70;99.90;;;;;;1916596;73;21125;-74
2023/07/25 05:09:24;;;;;;;2.42;1.50;;;18.80;99.90;;;;;;1931060;73;21126;-74
2023/07/25 05:12:15;;;;;;;2.50;1.67;;;18.90;99.90;;;;;;1928909;73;21507;-74
2023/07/25 05:15:08;;;;;;;3.80;1.80;;;18.90;99.90;;;;;;1915245;75;21146;-76
2023/07/25 05:17:59;;;;;;;3.55;1.87;;;18.90;99.90;;;;;;1920255;73;21105;-74
2023/07/25 05:20:51;;;;;;;2.87;2.17;;;18.80;99.90;;;;;;1931195;73;21151;-74
2023/07/25 05:26:21;;;;;;;4.08;1.90;;;18.70;99.90;;;;;;1929098;72;22169;-73
2023/07/25 05:29:12;;;;;;;3.98;1.92;;;18.80;99.90;;;;;;1899649;75;21758;-73
2023/07/25 05:32:03;;;;;;;2.00;1.52;;;18.70;99.90;;;;;;1885649;75;21192;-74
2023/07/25 05:34:54;;;;;;;3.42;1.72;;;18.70;99.90;;;;;;1900476;75;21871;-74
2023/07/25 05:37:45;;;;;;;4.05;2.12;;;18.70;99.90;;;;;;1904416;75;21113;-74
2023/07/25 05:40:37;;;;;;;4.35;2.40;;;18.80;99.90;;;;;;1893724;75;21183;-74
2023/07/25 05:43:28;;;;;;;3.33;2.05;;;18.80;99.90;;;;;;1904593;75;21505;-74
2023/07/25 05:46:19;;;;;;;4.37;1.70;;;18.80;99.90;;;;;;1894756;75;21143;-74
2023/07/25 05:49:10;;;;;;;4.40;2.27;;;18.70;99.90;;;;;;1901464;75;21082;-74
2023/07/25 05:54:40;;;;;;;7.87;2.30;;;18.90;99.90;;;;;;1945392;72;22285;-74
2023/07/25 05:57:31;;;;;;;5.42;2.30;;;18.90;99.90;;;;;;1928032;73;21119;-74
2023/07/25 06:00:22;;;;;;;5.67;2.62;;;18.90;99.90;;;;;;1915404;75;21146;-74
2023/07/25 06:03:16;;;;;;;4.30;2.00;;;18.90;99.90;;;;;;1927111;73;21201;-75
2023/07/25 06:08:46;;;;;;;3.85;2.00;;;19.10;99.90;;;;;;1917355;72;22344;-75
2023/07/25 06:11:37;;;;;;;2.72;1.70;;;19.10;99.90;;;;;;1890967;75;21119;-75
2023/07/25 06:14:28;;;;;;;4.08;2.02;;;19.20;99.90;;;;;;1887534;74;21107;-73
2023/07/25 06:20:03;;;;;;;4.67;2.08;;;19.30;99.90;;;;;;1930420;72;22127;-73
2023/07/25 06:22:54;;;;;;;4.42;2.22;;;19.30;99.90;;;;;;1885918;75;21569;-73
2023/07/25 06:25:45;;;;;;;3.50;2.42;;;19.40;99.90;;;;;;1903167;75;21102;-73
2023/07/25 06:28:37;;;;;;;3.37;1.90;;;19.30;99.90;;;;;;1897163;75;21143;-75
2023/07/25 06:34:06;;;;;;;4.08;2.35;;;19.50;99.90;;;;;;1948030;72;22236;-73
2023/07/25 06:39:36;;;;;;;5.58;2.62;;;19.70;99.90;;;;;;1918810;72;22245;-73
2023/07/25 06:42:28;;;;;;;4.25;1.90;;;19.70;99.90;;;;;;1913022;73;21155;-73
2023/07/25 06:45:19;;;;;;;5.80;1.98;;;19.80;99.90;;;;;;1915914;74;21195;-73
2023/07/25 06:50:56;;;;;;;3.95;2.10;;;19.90;99.90;;;;;;1943685;72;22137;-82
2023/07/25 06:53:48;;;;;;;6.28;2.62;;;19.90;99.90;;;;;;1892598;75;21161;-82
2023/07/25 06:56:39;;;;;;;4.95;1.90;;;20.00;99.90;;;;;;1886811;75;21102;-82
2023/07/25 06:59:31;;;;;;;7.33;2.37;;;20.00;99.90;;;;;;1888894;75;21188;-83
2023/07/25 07:05:03;;;;;;;3.80;2.15;;;20.00;99.90;;;;;;1937609;72;22661;-84
2023/07/25 07:07:56;;;;;;;4.92;2.20;;;20.20;99.90;;;;;;1885237;74;21166;-84
2023/07/25 07:10:50;;;;;;;5.03;2.08;;;20.40;99.90;;;;;;1878530;75;21205;-83
2023/07/25 07:16:21;;;;;;;4.53;2.17;;;20.50;99.90;;;;;;1949852;72;22251;-82
2023/07/25 07:19:12;;;;;;;5.62;1.85;;;20.50;99.90;;;;;;1873188;75;21240;-85
2023/07/25 07:22:04;;;;;;;4.17;2.00;;;20.60;99.90;;;;;;1886162;75;21088;-85
2023/07/25 07:24:57;;;;;;;3.15;1.82;;;20.60;99.90;;;;;;1893623;75;21424;-85
2023/07/25 07:27:48;;;;;;;3.92;2.00;;;20.60;99.90;;;;;;1889831;75;21146;-83
2023/07/25 07:30:40;;;;;;;3.50;2.05;;;20.70;99.90;;;;;;1873830;75;21091;-83
2023/07/25 07:33:34;;;;;;;2.62;1.25;;;20.70;99.90;;;;;;1884085;75;21193;-83
2023/07/25 07:39:06;;;;;;;1.90;1.27;;;21.00;99.90;;;;;;1946300;72;22404;-82
2023/07/25 07:41:57;;;;;;;2.12;1.12;;;21.20;99.90;;;;;;1936136;73;21619;-81
2023/07/25 07:44:49;;;;;;;3.67;1.10;;;21.30;99.90;;;;;;1883363;75;21133;-81
2023/07/25 07:47:40;;;;;;;2.12;1.10;;;21.40;99.90;;;;;;1927607;73;21075;-82
2023/07/25 07:50:33;;;;;;;2.25;1.20;;;21.40;99.90;;;;;;1919974;73;21117;-82
2023/07/25 07:53:25;;;;;;;1.80;1.12;;;21.50;99.90;;;;;;1924413;73;21747;-81
2023/07/25 07:59:00;;;;;;;3.85;1.42;;;21.70;99.90;;;;;;1952559;72;22167;-83
2023/07/25 08:01:52;;;;;;;2.45;1.20;;;21.70;99.90;;;;;;1890481;75;21111;-82
2023/07/25 08:04:43;;;;;;;2.00;1.00;;;21.80;99.90;;;;;;1883558;75;21106;-82
2023/07/25 08:07:35;;;;;;;2.20;1.20;;;21.90;99.90;;;;;;1882065;75;21103;-82
2023/07/25 08:10:27;;;;;;;2.62;1.05;;;21.80;99.90;;;;;;1880738;75;21087;-82
2023/07/25 08:13:19;;;;;;;2.85;1.00;;;21.90;99.90;;;;;;1896934;75;21193;-82
2023/07/25 08:16:10;;;;;;;1.35;0.98;;;21.90;99.90;;;;;;1884542;75;21684;-81
2023/07/25 08:19:02;;;;;;;2.05;1.00;;;22.00;99.90;;;;;;1893880;75;21114;-82
2023/07/25 08:24:34;;;;;;;1.30;1.12;;;22.20;99.90;;;;;;1954628;72;22164;-80
2023/07/25 08:30:09;;;;;;;1.25;0.93;;;22.20;99.90;;;;;;1950555;72;22190;-83
2023/07/25 08:33:02;;;;;;;1.90;1.10;;;22.10;99.90;;;;;;1916689;75;21615;-80
2023/07/25 08:35:54;;;;;;;2.12;1.22;;;22.20;99.90;;;;;;1916681;73;21105;-81
2023/07/25 08:41:27;;;;;;;1.85;1.00;;;22.00;99.90;;;;;;1939114;72;22326;-81
2023/07/25 08:47:01;;;;;;;1.57;1.07;;;22.10;99.90;;;;;;1935451;72;22173;-82
2023/07/25 08:49:55;;;;;;;1.90;1.20;;;22.20;99.90;;;;;;1884362;75;21151;-81
2023/07/25 08:52:50;;;;;;;3.10;1.00;;;22.10;99.90;;;;;;1884297;75;21102;-81
2023/07/25 08:55:42;;;;;;;1.85;1.10;;;22.00;99.90;;;;;;1884743;75;21102;-81
2023/07/25 08:58:35;;;;;;;1.40;1.02;;;22.00;99.90;;;;;;1911042;75;21127;-81
2023/07/25 09:01:28;;;;;;;2.72;1.32;;;22.10;99.90;;;;;;1916676;75;21139;-81
2023/07/25 09:04:21;;;;;;;2.33;1.30;;;22.30;99.90;;;;;;1916906;75;21094;-81
2023/07/25 09:07:12;;;;;;;1.95;0.98;;;22.40;99.90;;;;;;1880674;75;21142;-81
2023/07/25 09:10:04;;;;;;;2.25;0.90;;;22.50;99.90;;;;;;1909945;75;21091;-81
2023/07/25 09:12:56;;;;;;;2.08;1.00;;;22.70;99.90;;;;;;1891291;75;21110;-81
2023/07/25 09:15:47;;;;;;;2.33;0.85;;;22.70;99.90;;;;;;1899782;75;21131;-81
2023/07/25 09:18:39;;;;;;;2.42;1.50;;;22.70;99.90;;;;;;1906348;75;21082;-82
2023/07/25 09:21:30;;;;;;;1.30;1.10;;;22.70;99.90;;;;;;1884975;75;21161;-82
2023/07/25 09:24:22;;;;;;;2.87;1.07;;;22.90;99.90;;;;;;1884007;76;21094;-82
2023/07/25 09:29:55;;;;;;;2.02;1.30;;;23.10;99.90;;;;;;1935577;72;22164;-80
2023/07/25 09:32:47;;;;;;;1.85;1.10;;;23.00;99.90;;;;;;1908310;75;21134;-80
2023/07/25 09:38:18;;;;;;;1.90;1.10;;;23.10;99.90;;;;;;1926615;72;22151;-80
2023/07/25 09:43:48;;;;;;;1.30;1.00;;;23.40;99.90;;;;;;1935766;72;22250;-81
2023/07/25 09:49:23;;;;;;;1.92;1.25;;;23.80;99.90;;;;;;1942632;72;22222;-81
2023/07/25 09:52:14;;;;;;;1.98;1.40;;;24.00;99.90;;;;;;1924388;73;21149;-81
2023/07/25 09:55:07;;;;;;;2.70;1.30;;;23.90;99.90;;;;;;1922142;73;21134;-81
2023/07/25 09:57:58;;;;;;;1.90;1.30;;;24.10;99.90;;;;;;1933336;73;21129;-81
2023/07/25 10:00:50;;;;;;;1.67;0.80;;;24.10;99.90;;;;;;1916366;75;21114;-81
2023/07/25 10:03:44;;;;;;;1.95;1.10;;;24.10;99.90;;;;;;1939105;73;21650;-81
2023/07/25 10:06:36;;;;;;;1.52;0.85;;;24.10;99.90;;;;;;1916568;75;21094;-81
2023/07/25 10:09:29;;;;;;;1.82;1.00;;;24.10;99.90;;;;;;1936611;73;21098;-81
2023/07/25 10:12:21;;;;;;;1.47;0.95;;;24.20;99.90;;;;;;1916766;75;21175;-81
2023/07/25 10:15:14;;;;;;;1.70;0.95;;;24.10;99.90;;;;;;1939171;73;21150;-81
2023/07/25 10:18:19;;;;;;;2.05;0.95;;;24.00;99.90;;;;;;1875762;76;21182;-81
2023/07/25 10:21:12;;;;;;;1.37;0.80;;;24.10;99.90;;;;;;1916872;75;21107;-81
2023/07/25 10:24:06;;;;;;;2.12;0.95;;;24.10;99.90;;;;;;1936942;73;21537;-81
2023/07/25 10:26:59;;;;;;;0.72;0.62;;;24.00;99.90;;;;;;1932051;73;21096;-81
2023/07/25 10:29:50;;;;;;;1.75;0.88;;;24.00;99.90;;;;;;1950789;73;21108;-81
2023/07/25 10:32:46;;;;;;;1.77;0.90;;;23.90;99.90;;;;;;1923754;73;21087;-81
2023/07/25 10:35:49;;;;;;;1.32;0.90;;;23.90;99.90;;;;;;1916964;75;21593;-81
2023/07/25 10:38:42;;;;;;;1.52;0.78;;;23.80;99.90;;;;;;1917097;75;21164;-80
2023/07/25 10:41:34;;;;;;;1.60;0.75;;;23.80;99.90;;;;;;1931427;73;21087;-81
2023/07/25 10:44:38;;;;;;;1.90;0.82;;;23.90;99.90;;;;;;1919276;73;21163;-81
2023/07/25 10:47:48;;;;;;;1.92;1.15;;;23.90;99.90;;;;;;1939536;73;21113;-82
2023/07/25 10:50:54;;;;;;;2.22;1.10;;;23.90;99.90;;;;;;1916912;75;21063;-81
2023/07/25 10:54:07;;;;;;;1.20;0.90;;;23.90;99.90;;;;;;1916886;75;21180;-81
2023/07/25 10:57:20;;;;;;;1.22;0.93;;;23.70;99.90;;;;;;1916972;75;21062;-80
2023/07/25 11:00:13;;;;;;;1.37;0.95;;;23.30;99.90;;;;;;1916324;75;21168;-80
2023/07/25 11:03:27;;;;;;;2.45;0.98;;;23.10;99.90;;;;;;1916358;75;21125;-80
2023/07/25 11:06:39;;;;;;;1.55;0.82;;;23.10;99.90;;;;;;1916196;75;21172;-80
2023/07/25 11:09:31;;;;;;;0.70;0.50;;;23.10;99.90;;;;;;1916275;75;21161;-79
2023/07/25 11:12:24;;;;;;;1.10;0.50;;;23.00;99.90;;;;;;1916410;75;21502;-80
2023/07/25 11:15:16;;;;;;;0.85;0.60;;;23.00;99.90;;;;;;1938970;73;21110;-80
2023/07/25 11:18:09;;;;;;;1.12;0.60;;;23.10;99.90;;;;;;1916305;75;21211;-79
2023/07/25 11:21:02;;;;;;;1.35;0.70;;;23.30;99.90;;;;;;1916278;75;21545;-79
2023/07/25 11:24:04;;;;;;;2.80;0.40;;;23.40;99.90;;;;;;1916513;75;21098;-79
2023/07/25 11:26:55;;;;;;;1.57;0.55;;;23.40;99.90;;;;;;1931080;73;21142;-81
2023/07/25 11:29:47;;;;;;;0.90;0.50;;;23.20;99.90;;;;;;1918374;73;21109;-80
2023/07/25 11:32:38;;;;;;;3.47;0.60;;;23.30;99.90;;;;;;1916309;75;21044;-80
2023/07/25 11:35:31;;;;;;;0.75;0.45;;;23.50;99.90;;;;;;1916069;75;21090;-79
2023/07/25 11:38:24;;;;;;;0.80;0.60;;;23.50;99.90;;;;;;1916422;75;21172;-80
2023/07/25 11:41:16;;;;;;;0.90;0.42;;;23.60;99.90;;;;;;1916508;75;21573;-80
2023/07/25 11:44:10;;;;;;;0.82;0.42;;;23.40;99.90;;;;;;1916133;75;21174;-79
2023/07/25 11:47:02;;;;;;;2.17;0.57;;;23.50;99.90;;;;;;1938403;73;21522;-79
2023/07/25 11:49:53;;;;;;;1.02;0.40;;;23.40;99.90;;;;;;1927612;73;21071;-79
2023/07/25 11:52:47;;;;;;;1.95;0.40;;;23.50;99.90;;;;;;1904118;75;21135;-80
2023/07/25 11:55:39;;;;;;;0.57;0.42;;;23.50;99.90;;;;;;1926139;74;21106;-79
2023/07/25 11:58:30;;;;;;;0.50;0.37;;;23.50;99.90;;;;;;1903941;75;21579;-80
2023/07/25 12:01:29;;;;;;;0.98;0.30;;;23.60;99.90;;;;;;1916242;75;21098;-79
2023/07/25 12:04:21;;;;;;;0.70;0.40;;;23.60;99.90;;;;;;1904316;75;21191;-81
2023/07/25 12:07:12;;;;;;;0.93;0.30;;;23.70;99.90;;;;;;1916301;75;21086;-79
2023/07/25 12:10:05;;;;;;;1.12;0.40;;;23.60;99.90;;;;;;1925861;74;21149;-80
2023/07/25 12:12:57;;;;;;;1.70;0.50;;;23.60;99.90;;;;;;1916095;75;21086;-81
2023/07/25 12:15:50;;;;;;;1.12;0.50;;;23.60;99.90;;;;;;1903779;75;21056;-80
2023/07/25 12:18:42;;;;;;;1.22;0.50;;;23.70;99.90;;;;;;1928546;73;21176;-81
2023/07/25 12:21:35;;;;;;;1.02;0.50;;;23.70;99.90;;;;;;1907921;74;21067;-81
2023/07/25 12:24:26;;;;;;;1.45;0.50;;;23.70;99.90;;;;;;1938904;73;21113;-79
2023/07/25 12:27:19;;;;;;;2.42;0.57;;;23.70;99.90;;;;;;1922815;74;21090;-80
2023/07/25 12:30:12;;;;;;;1.77;0.53;;;23.70;99.90;;;;;;1916177;75;21115;-79
2023/07/25 12:33:03;;;;;;;1.27;0.50;;;23.60;99.90;;;;;;1925553;73;21083;-80
2023/07/25 12:35:55;;;;;;;0.70;0.40;;;23.50;99.90;;;;;;1911046;74;21090;-80
2023/07/25 12:38:46;;;;;;;1.20;0.60;;;23.60;99.90;;;;;;1916340;75;21160;-80
2023/07/25 12:41:38;;;;;;;1.07;0.50;;;23.60;99.90;;;;;;1904171;75;21147;-79
2023/07/25 12:44:30;;;;;;;0.60;0.40;;;23.60;99.90;;;;;;1926659;74;21088;-81
2023/07/25 12:47:21;;;;;;;1.60;0.62;;;23.60;99.90;;;;;;1916049;75;21119;-81
2023/07/25 12:50:13;;;;;;;1.67;0.70;;;23.60;99.90;;;;;;1937549;73;21183;-79
2023/07/25 12:53:04;;;;;;;0.88;0.35;;;23.90;99.90;;;;;;1916323;75;21067;-79
2023/07/25 12:55:56;;;;;;;1.30;0.57;;;23.90;99.90;;;;;;1926605;73;21091;-80
2023/07/25 12:58:48;;;;;;;1.45;0.40;;;23.80;99.90;;;;;;1927192;73;21052;-80
2023/07/25 13:01:39;;;;;;;2.17;0.80;;;23.70;99.90;;;;;;1927253;73;21071;-81
2023/07/25 13:04:31;;;;;;;1.22;0.50;;;23.50;99.90;;;;;;1933446;73;21091;-80
2023/07/25 13:07:23;;;;;;;1.07;0.70;;;23.10;99.90;;;;;;1928238;73;21200;-79
2023/07/25 13:10:15;;;;;;;1.77;0.35;;;22.90;99.90;;;;;;1949702;73;21193;-78
2023/07/25 13:13:06;;;;;;;2.27;0.60;;;22.80;99.90;;;;;;1924840;73;21150;-81
2023/07/25 13:15:58;;;;;;;2.33;0.60;;;22.70;99.90;;;;;;1915632;75;21135;-81
2023/07/25 13:18:49;;;;;;;1.32;0.57;;;22.70;99.90;;;;;;1916130;75;21098;-81
2023/07/25 13:21:42;;;;;;;0.85;0.53;;;22.80;99.90;;;;;;1924959;73;21134;-81
2023/07/25 13:24:34;;;;;;;2.17;0.60;;;22.90;99.90;;;;;;1923294;73;21117;-81
2023/07/25 13:27:26;;;;;;;1.15;0.55;;;22.90;99.90;;;;;;1916038;75;21216;-80
2023/07/25 13:30:20;;;;;;;2.52;0.70;;;22.80;99.90;;;;;;1915860;75;21094;-79
2023/07/25 13:33:11;;;;;;;1.02;0.40;;;22.90;99.90;;;;;;1916287;75;21083;-81
2023/07/25 13:36:03;;;;;;;0.90;0.40;;;22.90;99.90;;;;;;1939479;73;21292;-80
2023/07/25 13:38:54;;;;;;;0.98;0.45;;;23.00;99.90;;;;;;1916004;75;21164;-79
2023/07/25 13:41:46;;;;;;;1.10;0.70;;;22.90;99.90;;;;;;1932431;73;21387;-79
2023/07/25 13:44:37;;;;;;;1.80;0.70;;;23.10;99.90;;;;;;1915990;75;21134;-80
2023/07/25 13:47:29;;;;;;;1.60;0.60;;;23.10;99.90;;;;;;1938579;73;21195;-81
2023/07/25 13:50:20;;;;;;;1.15;0.50;;;22.80;99.90;;;;;;1938530;73;21562;-81
2023/07/25 13:53:13;;;;;;;2.60;0.40;;;22.60;99.90;;;;;;1904018;75;21136;-80
2023/07/25 13:56:05;;;;;;;2.67;0.62;;;22.70;99.90;;;;;;1929118;73;21541;-79
2023/07/25 13:58:56;;;;;;;1.50;0.60;;;22.70;99.90;;;;;;1907448;74;21190;-80
2023/07/25 14:01:48;;;;;;;1.35;0.60;;;22.90;99.90;;;;;;1916113;75;21102;-79
2023/07/25 14:04:40;;;;;;;0.88;0.62;;;23.20;99.90;;;;;;1916330;75;21136;-80
2023/07/25 14:07:31;;;;;;;0.93;0.53;;;23.20;99.90;;;;;;1904199;75;21107;-78
2023/07/25 14:10:23;;;;;;;1.15;0.70;;;23.60;99.90;;;;;;1912451;74;21107;-79
2023/07/25 14:13:14;;;;;;;2.15;0.70;;;24.10;99.90;;;;;;1927223;73;21150;-79
2023/07/25 14:16:07;;;;;;;1.27;0.47;;;24.10;99.90;;;;;;1915830;74;21582;-78
2023/07/25 14:18:59;;;;;;;2.17;0.55;;;24.60;99.90;;;;;;1919132;74;21149;-80
2023/07/25 14:21:50;;;;;;;1.75;0.80;;;24.80;99.90;;;;;;1926840;73;21580;-80
2023/07/25 14:24:42;;;;;;;1.32;0.45;;;24.70;99.90;;;;;;1909681;74;21087;-79
2023/07/25 14:27:33;;;;;;;1.65;0.70;;;24.80;99.90;;;;;;1903559;75;21341;-80
2023/07/25 14:30:25;;;;;;;2.37;0.80;;;24.80;99.90;;;;;;1915775;75;21092;-80
2023/07/25 14:33:20;;;;;;;1.07;0.65;;;25.00;99.90;;;;;;1927049;73;21167;-79
2023/07/25 14:36:10;;;;;;;1.70;0.70;;;25.30;99.90;;;;;;1908100;74;21099;-80
2023/07/25 14:39:02;;;;;;;2.37;0.80;;;25.50;99.90;;;;;;1917398;73;21155;-79
2023/07/25 14:41:53;;;;;;;1.32;0.60;;;25.60;99.90;;;;;;1918765;74;21094;-81
2023/07/25 14:44:45;;;;;;;2.35;0.70;;;25.50;99.90;;;;;;1929468;73;21561;-79
2023/07/25 14:47:36;;;;;;;0.82;0.50;;;25.30;99.90;;;;;;1906177;74;21155;-79
2023/07/25 14:50:29;;;;;;;3.33;0.82;;;25.40;99.90;;;;;;1918950;73;21098;-80
2023/07/25 14:53:20;;;;;;;1.40;0.70;;;25.80;99.90;;;;;;1916830;73;21098;-79
2023/07/25 14:56:12;;;;;;;0.95;0.60;;;26.20;98.80;;;;;;1930351;73;21125;-80
2023/07/25 14:59:03;;;;;;;1.65;0.75;;;26.20;96.80;;;;;;1904740;74;21114;-80
2023/07/25 15:01:55;;;;;;;0.90;0.50;;;26.20;95.60;;;;;;1915376;75;21110;-80
2023/07/25 15:04:46;;;;;;;1.27;0.60;;;26.10;95.00;;;;;;1916014;75;21089;-79
2023/07/25 15:07:38;;;;;;;1.27;0.50;;;26.30;94.00;;;;;;1931700;73;21163;-81
2023/07/25 15:10:30;;;;;;;1.92;0.70;;;26.60;93.10;;;;;;1926888;74;21117;-79
2023/07/25 15:16:06;;;;;;;1.22;0.60;;;27.20;91.10;;;;;;1936201;72;22181;-79
2023/07/25 15:18:58;;;;;;;1.37;0.60;;;27.40;90.80;;;;;;1887174;75;21152;-79
2023/07/25 15:21:49;;;;;;;0.82;0.75;;;27.80;89.70;;;;;;1882851;75;21200;-79
2023/07/25 15:24:41;;;;;;;3.00;0.95;;;28.00;86.40;;;;;;1879090;75;21114;-78
2023/07/25 15:27:32;;;;;;;2.60;1.00;;;28.30;86.00;;;;;;1892612;75;21083;-80
2023/07/25 15:30:25;;;;;;;1.65;0.70;;;28.60;85.20;;;;;;1889036;75;21562;-79
2023/07/25 15:33:16;;;;;;;1.70;0.78;;;28.20;82.90;;;;;;1872534;75;21201;-79
2023/07/25 15:36:08;;;;;;;2.00;0.60;;;29.00;78.00;;;;;;1872499;76;21071;-79
2023/07/25 15:38:59;;;;;;;0.60;0.55;;;29.70;76.90;;;;;;1893789;75;21180;-79
2023/07/25 15:41:50;;;;;;;0.88;0.53;;;29.90;73.90;;;;;;1889846;75;21156;-79
2023/07/25 15:44:41;;;;;;;0.80;0.60;;;30.50;71.90;;;;;;1872320;76;21148;-79
2023/07/25 15:47:33;;;;;;;1.35;0.65;;;29.30;72.70;;;;;;1893762;75;21583;-79
2023/07/25 15:50:25;;;;;;;1.98;0.80;;;29.70;72.10;;;;;;1893952;75;21099;-79
2023/07/25 15:53:16;;;;;;;1.95;0.75;;;30.50;69.00;;;;;;1890703;75;21185;-79
2023/07/25 15:56:08;;;;;;;1.17;0.50;;;29.60;68.50;;;;;;1885209;75;21209;-79
2023/07/25 15:58:59;;;;;;;0.82;0.50;;;29.70;68.00;;;;;;1883042;75;21141;-79
2023/07/25 16:01:50;;;;;;;1.00;0.60;;;29.90;67.30;;;;;;1883105;75;21168;-79
2023/07/25 16:04:43;;;;;;;0.78;0.60;;;28.60;70.20;;;;;;1884695;75;21180;-79
2023/07/25 16:07:35;;;;;;;1.52;0.80;;;27.40;72.80;;;;;;1886956;75;21168;-78
2023/07/25 16:10:26;;;;;;;1.77;0.60;;;27.00;74.50;;;;;;1882930;75;21091;-79
2023/07/25 16:13:18;;;;;;;1.90;0.70;;;27.80;74.50;;;;;;1900501;75;21091;-78
2023/07/25 16:16:10;;;;;;;2.22;0.62;;;29.20;71.50;;;;;;1874059;75;21208;-79
2023/07/25 16:19:02;;;;;;;1.57;0.60;;;28.10;72.30;;;;;;1890184;75;21107;-79
2023/07/25 16:21:54;;;;;;;2.00;0.70;;;27.10;73.70;;;;;;1886874;75;21147;-79
2023/07/25 16:24:46;;;;;;;1.20;0.70;;;26.40;75.40;;;;;;1887201;75;21120;-79
2023/07/25 16:27:38;;;;;;;1.57;1.00;;;25.80;75.60;;;;;;1885846;75;21188;-79
2023/07/25 16:30:29;;;;;;;1.35;0.60;;;25.20;81.70;;;;;;1886458;75;21514;-79
2023/07/25 16:33:33;;;;;;;0.65;0.30;;;24.80;85.90;;;;;;1883873;75;21052;-78
2023/07/25 16:39:12;;;;;;;0.55;0.17;;;23.50;90.60;;;;;;1947964;72;22160;-78
2023/07/25 16:42:03;;;;;;;0.30;0.10;;;23.10;92.20;;;;;;1938093;73;21110;-78
2023/07/25 16:44:54;;;;;;;0.10;0.10;;;22.80;93.80;;;;;;1921339;73;21141;-77
2023/07/25 16:47:45;;;;;;;0.55;0.10;;;23.00;94.30;;;;;;1916884;75;21059;-79
2023/07/25 16:50:36;;;;;;;0.68;0.20;;;23.30;94.80;;;;;;1922168;73;21168;-78
2023/07/25 16:53:28;;;;;;;1.77;0.30;;;24.10;93.70;;;;;;1928152;73;21094;-80
2023/07/25 16:56:19;;;;;;;2.22;0.20;;;24.20;93.00;;;;;;1916779;75;21157;-79
2023/07/25 16:59:11;;;;;;;0.57;0.10;;;23.50;94.10;;;;;;1917099;75;21541;-79
2023/07/25 17:02:02;;;;;;;0.65;0.20;;;23.10;94.70;;;;;;1916916;75;21106;-79